createdAt,value
2023-04-06T00:01:44.480Z,4.53
2023-04-06T00:04:12.211Z,5.43
2023-04-06T00:06:42.585Z,6.67
2023-04-06T00:09:13.302Z,7.43
2023-04-06T00:11:43.025Z,5.57
2023-04-06T00:16:53.427Z,6.97
2023-04-06T00:19:23.958Z,7.43
2023-04-06T00:21:57.180Z,7.30
2023-04-06T00:24:27.206Z,5.90
2023-04-06T00:26:59.593Z,6.00
2023-04-06T00:29:29.395Z,7.90
2023-04-06T00:31:57.649Z,6.73
2023-04-06T00:34:27.618Z,7.70
2023-04-06T00:36:57.628Z,6.60
2023-04-06T00:39:30.053Z,5.57
2023-04-06T00:42:15.947Z,6.40
2023-04-06T00:44:46.407Z,5.90
2023-04-06T00:47:18.787Z,6.07
2023-04-06T00:49:49.520Z,5.03
2023-04-06T00:52:22.591Z,6.60
2023-04-06T00:54:53.338Z,7.83
2023-04-06T00:57:24.595Z,7.28
2023-04-06T00:59:59.276Z,7.57
2023-04-06T01:02:29.322Z,6.60
2023-04-06T01:05:02.570Z,6.13
2023-04-06T01:07:43.928Z,8.38
2023-04-06T01:10:32.170Z,7.20
2023-04-06T01:13:15.598Z,6.33
2023-04-06T01:15:49.506Z,5.40
2023-04-06T01:18:30.033Z,7.63
2023-04-06T01:21:21.185Z,5.57
2023-04-06T01:24:06.797Z,7.30
2023-04-06T01:26:49.172Z,6.60
2023-04-06T01:29:21.984Z,7.27
2023-04-06T01:31:54.296Z,5.97
2023-04-06T01:34:25.695Z,6.07
2023-04-06T01:36:57.259Z,6.63
2023-04-06T01:39:31.236Z,5.80
2023-04-06T01:42:02.104Z,6.80
2023-04-06T01:44:33.155Z,7.10
2023-04-06T01:47:11.872Z,5.37
2023-04-06T01:49:45.108Z,5.90
2023-04-06T01:52:15.213Z,6.67
2023-04-06T01:54:49.066Z,5.30
2023-04-06T01:57:24.985Z,5.37
2023-04-06T02:00:01.455Z,4.57
2023-04-06T02:02:52.080Z,6.40
2023-04-06T02:05:31.657Z,5.07
2023-04-06T02:08:03.207Z,6.73
2023-04-06T02:10:39.175Z,6.57
2023-04-06T02:13:20.006Z,7.07
2023-04-06T02:15:53.593Z,5.83
2023-04-06T02:18:24.803Z,5.57
2023-04-06T02:20:55.358Z,6.43
2023-04-06T02:23:26.672Z,5.50
2023-04-06T02:25:56.621Z,5.90
2023-04-06T02:28:27.638Z,8.23
2023-04-06T02:31:00.399Z,5.60
2023-04-06T02:33:31.432Z,5.70
2023-04-06T02:36:05.284Z,6.07
2023-04-06T02:38:33.080Z,11.87
2023-04-06T02:41:04.916Z,7.80
2023-04-06T02:43:37.218Z,7.50
2023-04-06T02:46:17.854Z,5.43
2023-04-06T02:48:48.492Z,5.10
2023-04-06T02:51:21.360Z,5.33
2023-04-06T02:53:57.977Z,6.83
2023-04-06T02:56:26.046Z,6.30
2023-04-06T02:58:56.448Z,7.73
2023-04-06T03:01:32.646Z,5.77
2023-04-06T03:04:12.237Z,6.33
2023-04-06T03:06:47.366Z,5.43
2023-04-06T03:09:41.080Z,7.43
2023-04-06T03:12:11.213Z,7.10
2023-04-06T03:15:09.092Z,5.83
2023-04-06T03:17:42.121Z,7.73
2023-04-06T03:20:16.980Z,7.70
2023-04-06T03:22:47.109Z,7.70
2023-04-06T03:25:19.734Z,6.00
2023-04-06T03:27:50.617Z,7.33
2023-04-06T03:30:26.243Z,7.00
2023-04-06T03:32:59.432Z,6.40
2023-04-06T03:35:32.438Z,7.87
2023-04-06T03:38:05.784Z,7.23
2023-04-06T03:40:36.089Z,6.07
2023-04-06T03:43:04.980Z,7.30
2023-04-06T03:45:38.675Z,7.27
2023-04-06T03:48:14.409Z,8.73
2023-04-06T03:50:49.410Z,10.63
2023-04-06T03:53:17.410Z,12.43
2023-04-06T03:55:50.421Z,8.83
2023-04-06T03:58:20.733Z,8.60
2023-04-06T04:00:50.968Z,8.83
2023-04-06T04:03:28.913Z,8.63
2023-04-06T04:05:56.714Z,8.23
2023-04-06T04:08:28.657Z,9.23
2023-04-06T04:10:59.296Z,11.17
2023-04-06T04:13:35.163Z,7.83
2023-04-06T04:16:08.726Z,6.43
2023-04-06T04:18:40.157Z,6.68
2023-04-06T04:21:10.480Z,6.63
2023-04-06T04:23:40.940Z,8.23
2023-04-06T04:26:13.403Z,7.20
2023-04-06T04:28:46.468Z,7.87
2023-04-06T04:31:22.967Z,8.37
2023-04-06T04:33:57.561Z,7.10
2023-04-06T04:36:30.815Z,8.57
2023-04-06T04:39:02.352Z,8.65
2023-04-06T04:41:33.050Z,6.45
2023-04-06T04:44:01.439Z,7.53
2023-04-06T04:46:29.277Z,9.07
2023-04-06T04:48:57.545Z,7.80
2023-04-06T04:51:26.328Z,9.93
2023-04-06T04:54:08.331Z,10.03
2023-04-06T04:56:36.035Z,10.20
2023-04-06T04:59:12.630Z,8.40
2023-04-06T05:01:54.347Z,10.13
2023-04-06T05:04:26.567Z,7.60
2023-04-06T05:07:11.380Z,11.20
2023-04-06T05:09:41.823Z,8.77
2023-04-06T05:12:10.111Z,6.77
2023-04-06T05:14:46.946Z,8.53
2023-04-06T05:17:17.934Z,7.13
2023-04-06T05:19:45.728Z,9.00
2023-04-06T05:22:18.637Z,16.53
2023-04-06T05:24:53.536Z,9.17
2023-04-06T05:27:23.396Z,8.37
2023-04-06T05:29:51.308Z,9.80
2023-04-06T05:32:23.199Z,7.40
2023-04-06T05:34:52.421Z,8.83
2023-04-06T05:37:20.176Z,6.57
2023-04-06T05:39:50.900Z,8.93
2023-04-06T05:42:23.822Z,8.17
2023-04-06T05:44:57.849Z,8.33
2023-04-06T05:47:31.096Z,8.10
2023-04-06T05:50:07.308Z,10.03
2023-04-06T05:55:07.986Z,7.17
2023-04-06T05:57:42.257Z,7.53
2023-04-06T06:00:14.226Z,9.27
2023-04-06T06:02:51.979Z,8.13
2023-04-06T06:05:23.711Z,8.10
2023-04-06T06:07:52.826Z,8.37
2023-04-06T06:10:22.297Z,7.70
2023-04-06T06:12:52.107Z,10.13
2023-04-06T06:15:19.828Z,9.27
2023-04-06T06:17:49.014Z,7.30
2023-04-06T06:20:19.742Z,9.33
2023-04-06T06:22:48.749Z,5.60
2023-04-06T06:25:19.989Z,8.60
2023-04-06T06:27:48.964Z,6.80
2023-04-06T06:30:21.538Z,11.20
2023-04-06T06:32:51.742Z,7.63
2023-04-06T06:35:29.568Z,7.63
2023-04-06T06:38:06.842Z,7.83
2023-04-06T06:40:35.015Z,8.00
2023-04-06T06:43:02.966Z,5.30
2023-04-06T06:45:35.218Z,6.63
2023-04-06T06:48:03.392Z,7.13
2023-04-06T06:50:33.883Z,7.47
2023-04-06T06:53:01.387Z,7.45
2023-04-06T06:55:32.390Z,6.47
2023-04-06T06:58:00.151Z,6.55
2023-04-06T07:00:28.866Z,6.97
2023-04-06T07:02:56.426Z,7.30
2023-04-06T07:05:28.545Z,7.18
2023-04-06T07:07:58.236Z,5.55
2023-04-06T07:10:27.406Z,7.35
2023-04-06T07:12:55.354Z,9.50
2023-04-06T07:15:23.013Z,8.85
2023-04-06T07:17:53.425Z,6.95
2023-04-06T07:20:21.083Z,8.60
2023-04-06T07:22:53.630Z,6.05
2023-04-06T07:25:25.749Z,5.68
2023-04-06T07:27:53.653Z,5.63
2023-04-06T07:30:23.064Z,7.82
2023-04-06T07:32:50.528Z,5.53
2023-04-06T07:35:18.795Z,8.35
2023-04-06T07:37:46.492Z,7.18
2023-04-06T07:40:14.274Z,10.30
2023-04-06T07:42:47.742Z,5.25
2023-04-06T07:45:16.976Z,9.55
2023-04-06T07:47:44.909Z,9.45
2023-04-06T07:50:13.698Z,8.07
2023-04-06T07:52:41.549Z,6.10
2023-04-06T07:55:13.234Z,6.65
2023-04-06T07:57:41.060Z,7.05
2023-04-06T08:00:13.406Z,7.13
2023-04-06T08:02:41.246Z,6.20
2023-04-06T08:05:09.371Z,6.68
2023-04-06T08:07:40.114Z,7.30
2023-04-06T08:10:08.931Z,7.55
2023-04-06T08:12:36.442Z,8.38
2023-04-06T08:15:07.254Z,6.25
2023-04-06T08:17:35.351Z,5.97
2023-04-06T08:20:22.017Z,6.22
2023-04-06T08:22:52.261Z,5.43
2023-04-06T08:25:21.144Z,6.22
2023-04-06T08:27:51.278Z,7.32
2023-04-06T08:30:20.724Z,6.45
2023-04-06T08:32:53.659Z,5.95
2023-04-06T08:35:24.104Z,5.10
2023-04-06T08:38:00.839Z,6.68
2023-04-06T08:40:29.112Z,5.55
2023-04-06T08:43:01.059Z,11.15
2023-04-06T08:45:31.726Z,7.07
2023-04-06T08:48:02.861Z,6.35
2023-04-06T08:50:34.613Z,5.30
2023-04-06T08:53:04.380Z,3.97
2023-04-06T08:55:35.283Z,5.35
2023-04-06T08:58:03.603Z,6.55
2023-04-06T09:00:31.627Z,4.57
2023-04-06T09:03:20.179Z,5.85
2023-04-06T09:05:50.843Z,4.55
2023-04-06T09:08:18.704Z,3.65
2023-04-06T09:10:57.632Z,4.70
2023-04-06T09:13:28.131Z,3.17
2023-04-06T09:16:06.635Z,3.75
2023-04-06T09:18:35.800Z,3.33
2023-04-06T09:21:08.331Z,2.88
2023-04-06T09:23:38.897Z,3.90
2023-04-06T09:26:25.455Z,4.40
2023-04-06T09:28:56.962Z,6.68
2023-04-06T09:31:25.390Z,3.60
2023-04-06T09:33:54.935Z,4.75
2023-04-06T09:36:35.432Z,3.75
2023-04-06T09:39:05.075Z,2.67
2023-04-06T09:41:35.191Z,5.20
2023-04-06T09:44:14.506Z,3.67
2023-04-06T09:46:58.700Z,3.72
2023-04-06T09:49:33.025Z,4.57
2023-04-06T09:52:03.296Z,5.53
2023-04-06T09:54:32.663Z,2.88
2023-04-06T09:57:26.152Z,2.97
2023-04-06T10:00:23.160Z,2.58
2023-04-06T10:03:31.560Z,3.63
2023-04-06T10:06:10.299Z,2.78
2023-04-06T10:08:42.708Z,2.92
2023-04-06T10:11:13.030Z,3.15
2023-04-06T10:13:42.930Z,2.70
2023-04-06T10:16:11.133Z,2.20
2023-04-06T10:18:43.810Z,3.67
2023-04-06T10:21:19.759Z,3.53
2023-04-06T10:23:54.961Z,3.30
2023-04-06T10:26:26.122Z,3.88
2023-04-06T10:28:53.903Z,4.90
2023-04-06T10:31:29.884Z,2.58
2023-04-06T10:34:01.707Z,2.47
2023-04-06T10:36:33.582Z,8.02
2023-04-06T10:41:44.100Z,3.35
2023-04-06T10:44:25.251Z,3.45
2023-04-06T10:47:04.177Z,3.10
2023-04-06T10:49:31.690Z,3.13
2023-04-06T10:51:59.988Z,2.95
2023-04-06T10:54:28.966Z,2.55
2023-04-06T10:56:57.802Z,3.83
2023-04-06T11:01:57.544Z,4.00
2023-04-06T11:04:26.704Z,3.67
2023-04-06T11:06:55.209Z,3.10
2023-04-06T11:09:33.204Z,4.63
2023-04-06T11:12:01.908Z,2.67
2023-04-06T11:14:38.266Z,3.08
2023-04-06T11:17:06.131Z,3.00
2023-04-06T11:19:49.275Z,2.85
2023-04-06T11:22:17.602Z,4.82
2023-04-06T11:24:45.317Z,3.92
2023-04-06T11:27:13.270Z,3.65
2023-04-06T11:29:44.668Z,4.63
2023-04-06T11:32:12.506Z,3.92
2023-04-06T11:34:42.062Z,3.53
2023-04-06T11:37:11.924Z,2.65
2023-04-06T11:39:56.041Z,4.75
2023-04-06T11:42:29.881Z,2.80
2023-04-06T11:44:59.345Z,2.92
2023-04-06T11:47:32.363Z,2.70
2023-04-06T11:50:14.840Z,3.67
2023-04-06T11:52:45.643Z,3.47
2023-04-06T11:55:20.758Z,4.07
2023-04-06T11:57:48.414Z,3.63
2023-04-06T12:00:17.044Z,2.67
2023-04-06T12:02:47.975Z,4.07
2023-04-06T12:05:16.082Z,5.47
2023-04-06T12:07:43.982Z,3.28
2023-04-06T12:10:11.662Z,3.90
2023-04-06T12:12:39.309Z,4.43
2023-04-06T12:15:08.179Z,4.00
2023-04-06T12:17:35.980Z,4.88
2023-04-06T12:20:09.471Z,2.35
2023-04-06T12:22:41.264Z,3.22
2023-04-06T12:25:09.244Z,4.63
2023-04-06T12:27:36.721Z,3.53
2023-04-06T12:30:04.749Z,4.15
2023-04-06T12:32:32.139Z,3.75
2023-04-06T12:34:59.672Z,3.88
2023-04-06T12:37:28.387Z,3.03
2023-04-06T12:39:55.999Z,3.83
2023-04-06T12:42:23.651Z,2.70
2023-04-06T12:44:51.046Z,3.53
2023-04-06T12:47:19.195Z,3.17
2023-04-06T12:49:46.751Z,4.28
2023-04-06T12:52:14.134Z,3.63
2023-04-06T12:54:43.047Z,5.05
2023-04-06T12:57:10.512Z,4.03
2023-04-06T12:59:38.314Z,3.40
2023-04-06T13:02:06.639Z,4.95
2023-04-06T13:04:34.332Z,5.43
2023-04-06T13:07:01.788Z,4.22
2023-04-06T13:09:29.431Z,3.58
2023-04-06T13:11:57.785Z,3.67
2023-04-06T13:14:25.534Z,4.70
2023-04-06T13:16:53.009Z,3.65
2023-04-06T13:19:20.937Z,2.95
2023-04-06T13:21:48.438Z,4.60
2023-04-06T13:24:17.216Z,3.95
2023-04-06T13:26:45.341Z,2.85
2023-04-06T13:29:12.889Z,2.78
2023-04-06T13:31:40.494Z,6.80
2023-04-06T13:34:08.014Z,3.83
2023-04-06T13:36:35.516Z,2.60
2023-04-06T13:39:03.175Z,2.70
2023-04-06T13:41:30.577Z,3.47
2023-04-06T13:43:59.021Z,8.05
2023-04-06T13:46:28.311Z,4.68
2023-04-06T13:48:55.899Z,3.70
2023-04-06T13:51:23.329Z,3.97
2023-04-06T13:53:53.678Z,3.58
2023-04-06T13:56:21.262Z,3.08
2023-04-06T13:58:48.685Z,2.53
2023-04-06T14:01:16.431Z,3.72
2023-04-06T14:03:46.427Z,3.92
2023-04-06T14:06:29.571Z,3.17
2023-04-06T14:08:58.536Z,2.80
2023-04-06T14:11:26.020Z,3.45
2023-04-06T14:13:54.736Z,3.35
2023-04-06T14:16:25.216Z,2.72
2023-04-06T14:18:53.353Z,3.03
2023-04-06T14:21:21.156Z,2.30
2023-04-06T14:23:48.662Z,5.47
2023-04-06T14:26:16.422Z,4.80
2023-04-06T14:28:43.916Z,4.90
2023-04-06T14:31:14.276Z,3.28
2023-04-06T14:33:42.674Z,3.05
2023-04-06T14:36:10.736Z,3.03
2023-04-06T14:38:38.544Z,3.53
2023-04-06T14:41:06.145Z,4.07
2023-04-06T14:43:33.947Z,3.78
2023-04-06T14:46:02.724Z,3.88
2023-04-06T14:48:30.305Z,4.20
2023-04-06T14:50:58.264Z,3.17
2023-04-06T14:53:26.212Z,3.30
2023-04-06T14:55:53.931Z,3.55
2023-04-06T14:58:22.646Z,4.80
2023-04-06T15:00:50.756Z,2.65
2023-04-06T15:03:18.389Z,4.70
2023-04-06T15:05:46.004Z,3.17
2023-04-06T15:08:15.239Z,2.70
2023-04-06T15:10:42.629Z,3.53
2023-04-06T15:13:10.083Z,3.20
2023-04-06T15:15:38.102Z,2.67
2023-04-06T15:18:10.908Z,2.85
2023-04-06T15:20:38.690Z,3.85
2023-04-06T15:23:06.223Z,3.67
2023-04-06T15:25:33.683Z,4.28
2023-04-06T15:28:01.841Z,3.30
2023-04-06T15:30:29.415Z,5.10
2023-04-06T15:33:01.526Z,2.42
2023-04-06T15:35:29.936Z,3.33
2023-04-06T15:37:58.166Z,3.38
2023-04-06T15:40:26.203Z,4.68
2023-04-06T15:42:53.790Z,3.47
2023-04-06T15:45:21.396Z,6.22
2023-04-06T15:47:48.939Z,4.22
2023-04-06T15:50:16.696Z,4.45
2023-04-06T15:52:44.057Z,2.53
2023-04-06T15:55:11.606Z,2.17
2023-04-06T15:57:39.040Z,3.85
2023-04-06T16:00:07.632Z,2.13
2023-04-06T16:02:36.818Z,3.40
2023-04-06T16:05:04.796Z,2.63
2023-04-06T16:07:34.322Z,3.97
2023-04-06T16:10:02.305Z,5.30
2023-04-06T16:12:30.029Z,4.07
2023-04-06T16:14:57.501Z,3.42
2023-04-06T16:17:25.006Z,4.60
2023-04-06T16:19:52.441Z,3.30
2023-04-06T16:22:20.909Z,3.75
2023-04-06T16:24:48.316Z,4.47
2023-04-06T16:27:15.914Z,3.22
2023-04-06T16:29:43.351Z,3.20
2023-04-06T16:32:12.314Z,3.65
2023-04-06T16:34:39.792Z,3.15
2023-04-06T16:37:07.345Z,3.75
2023-04-06T16:39:34.797Z,3.05
2023-04-06T16:42:02.985Z,3.20
2023-04-06T16:44:30.642Z,3.00
2023-04-06T16:46:58.102Z,4.40
2023-04-06T16:49:25.767Z,3.45
2023-04-06T16:51:53.270Z,3.78
2023-04-06T16:54:20.747Z,2.80
2023-04-06T16:56:48.232Z,2.83
2023-04-06T16:59:15.797Z,3.00
2023-04-06T17:01:43.488Z,3.20
2023-04-06T17:04:11.333Z,4.50
2023-04-06T17:06:38.892Z,5.18
2023-04-06T17:09:06.363Z,2.60
2023-04-06T17:11:43.838Z,2.45
2023-04-06T17:14:13.743Z,2.30
2023-04-06T17:16:41.235Z,2.33
2023-04-06T17:19:08.803Z,3.35
2023-04-06T17:21:36.477Z,4.20
2023-04-06T17:24:04.244Z,3.10
2023-04-06T17:26:31.714Z,2.92
2023-04-06T17:28:59.150Z,3.47
2023-04-06T17:31:27.303Z,4.18
2023-04-06T17:33:54.736Z,2.58
2023-04-06T17:36:22.275Z,7.40
2023-04-06T17:38:49.751Z,3.78
2023-04-06T17:41:17.554Z,7.20
2023-04-06T17:43:45.289Z,7.63
2023-04-06T17:46:13.130Z,5.93
2023-04-06T17:48:41.834Z,12.38
2023-04-06T17:51:09.346Z,9.40
2023-04-06T17:53:37.148Z,9.82
2023-04-06T17:56:05.206Z,10.52
2023-04-06T17:58:32.634Z,7.38
2023-04-06T18:01:00.109Z,9.18
2023-04-06T18:03:27.512Z,10.15
2023-04-06T18:05:55.100Z,12.45
2023-04-06T18:08:22.655Z,8.80
2023-04-06T18:10:50.359Z,4.63
2023-04-06T18:13:17.768Z,6.97
2023-04-06T18:15:45.764Z,4.47
2023-04-06T18:18:13.198Z,3.25
2023-04-06T18:20:41.788Z,6.65
2023-04-06T18:23:09.388Z,5.70
2023-04-06T18:25:40.527Z,4.97
2023-04-06T18:28:09.430Z,5.57
2023-04-06T18:30:36.885Z,4.22
2023-04-06T18:33:04.844Z,4.45
2023-04-06T18:35:32.477Z,4.22
2023-04-06T18:37:59.953Z,4.43
2023-04-06T18:40:38.580Z,4.88
2023-04-06T18:43:08.045Z,6.63
2023-04-06T18:45:38.341Z,4.97
2023-04-06T18:48:06.671Z,5.53
2023-04-06T18:50:34.844Z,6.80
2023-04-06T18:53:02.610Z,6.57
2023-04-06T18:55:33.495Z,6.17
2023-04-06T18:58:01.092Z,6.00
2023-04-06T19:00:28.611Z,5.67
2023-04-06T19:02:56.302Z,6.23
2023-04-06T19:05:23.823Z,5.53
2023-04-06T19:07:52.807Z,6.37
2023-04-06T19:10:20.687Z,9.97
2023-04-06T19:12:49.005Z,7.33
2023-04-06T19:15:16.406Z,5.77
2023-04-06T19:17:43.957Z,6.53
2023-04-06T19:20:11.808Z,5.93
2023-04-06T19:22:42.431Z,6.13
2023-04-06T19:25:10.100Z,9.00
2023-04-06T19:27:37.870Z,6.90
2023-04-06T19:30:06.656Z,7.60
2023-04-06T19:32:34.143Z,7.30
2023-04-06T19:35:02.851Z,6.53
2023-04-06T19:37:30.913Z,9.10
2023-04-06T19:39:58.302Z,6.77
2023-04-06T19:42:25.887Z,7.47
2023-04-06T19:44:53.513Z,5.30
2023-04-06T19:47:21.440Z,7.33
2023-04-06T19:49:49.654Z,6.43
2023-04-06T19:52:17.451Z,7.20
2023-04-06T19:54:47.041Z,5.93
2023-04-06T19:57:15.024Z,7.80
2023-04-06T19:59:43.031Z,5.97
2023-04-06T20:02:10.972Z,7.33
2023-04-06T20:04:39.296Z,6.57
2023-04-06T20:07:07.439Z,9.77
2023-04-06T20:09:34.899Z,8.87
2023-04-06T20:12:02.353Z,8.07
2023-04-06T20:14:31.205Z,9.23
2023-04-06T20:16:58.825Z,8.03
2023-04-06T20:19:26.369Z,13.63
2023-04-06T20:21:53.856Z,13.00
2023-04-06T20:24:21.705Z,17.07
2023-04-06T20:26:50.743Z,14.93
2023-04-06T20:29:18.304Z,15.10
2023-04-06T20:31:45.908Z,13.57
2023-04-06T20:34:14.158Z,14.73
2023-04-06T20:36:42.017Z,12.60
2023-04-06T20:39:09.448Z,15.03
2023-04-06T20:41:37.440Z,12.93
2023-04-06T20:44:05.116Z,12.30
2023-04-06T20:46:32.601Z,11.67
2023-04-06T20:49:00.200Z,12.53
2023-04-06T20:51:27.590Z,10.37
2023-04-06T20:53:55.548Z,10.10
2023-04-06T20:56:23.278Z,12.53
2023-04-06T20:58:50.815Z,12.27
2023-04-06T21:01:18.457Z,11.33
2023-04-06T21:03:46.166Z,10.83
2023-04-06T21:06:13.632Z,13.53
2023-04-06T21:08:41.115Z,9.87
2023-04-06T21:11:08.612Z,10.03
2023-04-06T21:13:36.440Z,11.17
2023-04-06T21:16:04.690Z,11.70
2023-04-06T21:18:32.399Z,10.77
2023-04-06T21:20:59.808Z,10.53
2023-04-06T21:23:27.831Z,10.10
2023-04-06T21:25:57.347Z,8.70
2023-04-06T21:28:26.447Z,8.87
2023-04-06T21:30:54.855Z,8.43
2023-04-06T21:33:22.829Z,9.47
2023-04-06T21:35:50.226Z,10.77
2023-04-06T21:38:17.749Z,8.67
2023-04-06T21:40:45.125Z,11.43
2023-04-06T21:43:12.650Z,8.93
2023-04-06T21:45:40.337Z,8.27
2023-04-06T21:48:07.980Z,10.63
2023-04-06T21:50:40.468Z,11.47
2023-04-06T21:53:08.123Z,10.43
2023-04-06T21:55:35.742Z,10.30
2023-04-06T21:58:03.190Z,12.10
2023-04-06T22:00:30.713Z,9.43
2023-04-06T22:02:58.802Z,11.30
2023-04-06T22:05:26.415Z,10.03
2023-04-06T22:07:53.884Z,10.97
2023-04-06T22:10:21.630Z,11.83
2023-04-06T22:12:51.989Z,10.80
2023-04-06T22:15:19.508Z,12.27
2023-04-06T22:17:47.037Z,9.77
2023-04-06T22:20:14.537Z,12.03
2023-04-06T22:22:42.196Z,11.53
2023-04-06T22:25:09.899Z,12.07
2023-04-06T22:27:37.328Z,11.43
2023-04-06T22:30:05.635Z,12.20
2023-04-06T22:32:33.058Z,15.30
2023-04-06T22:35:00.655Z,13.00
2023-04-06T22:37:28.095Z,11.73
2023-04-06T22:39:56.170Z,10.97
2023-04-06T22:42:26.752Z,9.73
2023-04-06T22:44:54.265Z,9.63
2023-04-06T22:47:21.722Z,9.70
2023-04-06T22:49:49.225Z,9.57
2023-04-06T22:52:16.882Z,11.20
2023-04-06T22:54:44.477Z,10.57
2023-04-06T22:57:11.920Z,11.30
2023-04-06T22:59:39.430Z,11.23
2023-04-06T23:02:07.307Z,8.93
2023-04-06T23:04:34.924Z,13.70
2023-04-06T23:07:03.464Z,11.03
2023-04-06T23:09:31.246Z,10.07
2023-04-06T23:11:58.683Z,9.00
2023-04-06T23:14:26.273Z,8.13
2023-04-06T23:16:53.823Z,14.77
2023-04-06T23:19:21.559Z,10.40
2023-04-06T23:21:48.941Z,9.77
2023-04-06T23:24:16.663Z,11.43
2023-04-06T23:26:44.115Z,10.47
2023-04-06T23:29:11.594Z,10.43
2023-04-06T23:31:39.074Z,9.23
2023-04-06T23:34:06.661Z,11.43
2023-04-06T23:36:34.333Z,10.50
2023-04-06T23:39:01.789Z,11.40
2023-04-06T23:41:29.223Z,9.53
2023-04-06T23:43:56.889Z,9.53
2023-04-06T23:46:24.531Z,12.90
2023-04-06T23:48:52.107Z,10.73
2023-04-06T23:51:19.642Z,9.23
2023-04-06T23:53:47.031Z,11.13
2023-04-06T23:56:14.495Z,11.40
2023-04-06T23:58:41.957Z,11.43
